Time;durP1;ratioP1;P1;durP2;ratioP2;P2;SDS_P1;SDS_P2;PMS_P1;PMS_P2;Temp;Humidity;BMP_temperature;BMP_pressure;BME280_temperature;BME280_humidity;BME280_pressure;Samples;Min_cycle;Max_cycle;Signal;HPM_P1;HPM_P2
2022/06/17 00:01:21;;;;;;;4.93;3.80;;;18.20;99.90;;;;;;4971766;28;20229;-78
2022/06/17 00:03:51;;;;;;;4.97;4.45;;;18.10;99.90;;;;;;4957031;28;20208;-78
2022/06/17 00:06:20;;;;;;;5.57;4.18;;;17.80;99.90;;;;;;4972718;28;20212;-78
2022/06/17 00:08:50;;;;;;;3.60;3.30;;;17.40;99.90;;;;;;4971904;28;20718;-78
2022/06/17 00:11:23;;;;;;;4.43;3.58;;;17.50;99.90;;;;;;4971624;28;20578;-78
2022/06/17 00:13:51;;;;;;;4.80;4.00;;;17.60;99.90;;;;;;4955777;28;20698;-78
2022/06/17 00:16:21;;;;;;;5.57;4.18;;;17.70;99.90;;;;;;4955346;28;20197;-79
2022/06/17 00:18:49;;;;;;;4.93;4.40;;;17.70;99.90;;;;;;4955866;28;20575;-79
2022/06/17 00:21:22;;;;;;;4.60;3.90;;;17.60;99.90;;;;;;4955514;28;20240;-78
2022/06/17 00:23:49;;;;;;;4.97;4.30;;;17.40;99.90;;;;;;4955687;28;20208;-78
2022/06/17 00:26:17;;;;;;;4.50;4.10;;;17.10;99.90;;;;;;4971467;28;20216;-78
2022/06/17 00:28:48;;;;;;;6.53;3.65;;;17.00;99.90;;;;;;4971832;28;20205;-78
2022/06/17 00:31:15;;;;;;;4.63;4.22;;;17.10;99.90;;;;;;4956414;28;20229;-78
2022/06/17 00:33:44;;;;;;;4.95;4.00;;;17.20;99.90;;;;;;4937242;29;20198;-78
2022/06/17 00:36:14;;;;;;;4.68;4.00;;;17.10;99.90;;;;;;4952778;29;20197;-78
2022/06/17 00:38:42;;;;;;;5.60;4.32;;;17.30;99.90;;;;;;4936982;29;20202;-78
2022/06/17 00:41:15;;;;;;;4.78;3.63;;;17.40;99.90;;;;;;4946734;29;20229;-78
2022/06/17 00:43:44;;;;;;;4.18;3.78;;;17.40;99.90;;;;;;4954167;29;20205;-78
2022/06/17 00:46:25;;;;;;;4.30;3.90;;;17.40;99.90;;;;;;4936825;28;20202;-78
2022/06/17 00:49:01;;;;;;;5.00;4.15;;;17.40;99.90;;;;;;4955816;29;20205;-78
2022/06/17 00:51:33;;;;;;;4.20;3.60;;;17.60;99.90;;;;;;4955790;29;20217;-78
2022/06/17 00:54:03;;;;;;;4.95;4.00;;;17.60;99.90;;;;;;4956163;29;20198;-78
2022/06/17 00:56:32;;;;;;;4.90;4.45;;;17.50;99.90;;;;;;4956384;29;20213;-78
2022/06/17 00:59:04;;;;;;;5.72;5.22;;;17.40;99.90;;;;;;4939877;29;20198;-78
2022/06/17 01:01:42;;;;;;;4.75;4.32;;;17.40;99.90;;;;;;4955477;29;20228;-78
2022/06/17 01:04:12;;;;;;;5.07;4.57;;;17.50;99.90;;;;;;4940037;29;20240;-78
2022/06/17 01:06:42;;;;;;;5.22;4.60;;;17.60;99.90;;;;;;4940386;29;20198;-78
2022/06/17 01:12:03;;;;;;;4.72;4.22;;;17.50;99.90;;;;;;4958471;28;20221;-78
2022/06/17 01:14:32;;;;;;;5.57;4.10;;;17.50;99.90;;;;;;4958873;28;20193;-78
2022/06/17 01:17:03;;;;;;;4.82;4.07;;;17.40;99.90;;;;;;4958098;28;20551;-78
2022/06/17 01:19:37;;;;;;;5.63;4.38;;;17.30;99.90;;;;;;4954110;29;20198;-78
2022/06/17 01:22:37;;;;;;;4.93;4.43;;;17.30;99.90;;;;;;5020526;23;20233;-80
2022/06/17 01:25:07;;;;;;;5.63;4.28;;;17.30;99.90;;;;;;5035257;28;20602;-80
2022/06/17 01:27:37;;;;;;;4.80;4.38;;;17.30;99.90;;;;;;5052277;28;20199;-81
2022/06/17 01:30:08;;;;;;;5.15;4.25;;;17.30;99.90;;;;;;5034954;28;20233;-80
2022/06/17 01:32:46;;;;;;;6.53;4.53;;;17.20;99.90;;;;;;5035705;28;20223;-80
2022/06/17 01:35:14;;;;;;;5.35;4.57;;;17.30;99.90;;;;;;5052549;28;20266;-80
2022/06/17 01:37:43;;;;;;;5.68;4.40;;;17.30;99.90;;;;;;5052045;28;20199;-80
2022/06/17 01:40:12;;;;;;;5.65;4.20;;;17.20;99.90;;;;;;5034645;28;20206;-79
2022/06/17 01:42:40;;;;;;;8.13;4.53;;;17.00;99.90;;;;;;5034489;28;20569;-81
2022/06/17 01:45:10;;;;;;;4.88;4.47;;;17.10;99.90;;;;;;5021147;28;20198;-81
2022/06/17 01:47:41;;;;;;;7.35;4.95;;;17.10;99.90;;;;;;5034363;28;20195;-81
2022/06/17 01:50:16;;;;;;;6.13;4.57;;;17.10;99.90;;;;;;5048801;28;20205;-81
2022/06/17 01:52:53;;;;;;;5.43;4.85;;;17.10;99.90;;;;;;5071961;28;20229;-81
2022/06/17 01:55:35;;;;;;;5.65;4.25;;;16.90;99.90;;;;;;5071785;28;20814;-81
2022/06/17 01:58:07;;;;;;;5.28;4.88;;;17.00;99.90;;;;;;5070347;28;20202;-81
2022/06/17 02:00:40;;;;;;;5.50;4.90;;;17.00;99.90;;;;;;5047979;28;20199;-81
2022/06/17 02:03:12;;;;;;;5.65;5.15;;;17.00;99.90;;;;;;5047551;28;20227;-81
2022/06/17 02:05:44;;;;;;;5.07;4.57;;;17.00;99.90;;;;;;5015233;28;20200;-80
2022/06/17 02:08:14;;;;;;;6.68;5.32;;;17.00;99.90;;;;;;5030627;28;20192;-81
2022/06/17 02:10:44;;;;;;;6.32;4.50;;;17.10;99.90;;;;;;5033774;28;20205;-80
2022/06/17 02:13:14;;;;;;;5.47;5.07;;;17.20;99.90;;;;;;5034027;28;20226;-81
2022/06/17 02:16:03;;;;;;;6.43;4.80;;;17.20;99.90;;;;;;5050986;28;20198;-81
2022/06/17 02:18:50;;;;;;;6.97;5.30;;;17.30;99.90;;;;;;5041953;28;20206;-81
2022/06/17 02:21:22;;;;;;;6.38;5.10;;;17.30;99.90;;;;;;5051106;28;20207;-81
2022/06/17 02:23:51;;;;;;;5.18;4.72;;;17.40;99.90;;;;;;5050549;28;20201;-81
2022/06/17 02:26:21;;;;;;;5.90;5.40;;;17.60;99.90;;;;;;5050520;28;20202;-81
2022/06/17 02:28:50;;;;;;;5.90;5.30;;;17.50;99.90;;;;;;5050552;28;20203;-80
2022/06/17 02:31:21;;;;;;;5.72;5.03;;;17.40;99.90;;;;;;5034341;28;20195;-81
2022/06/17 02:33:51;;;;;;;6.50;5.25;;;17.20;99.90;;;;;;5034265;28;20206;-81
2022/06/17 02:36:25;;;;;;;5.07;4.47;;;17.20;99.90;;;;;;5033225;28;20199;-81
2022/06/17 02:38:54;;;;;;;6.65;4.45;;;17.10;99.90;;;;;;5033150;28;20206;-81
2022/06/17 02:41:23;;;;;;;5.38;4.97;;;16.80;99.90;;;;;;5030398;28;20713;-81
2022/06/17 02:43:57;;;;;;;5.20;4.70;;;16.70;99.90;;;;;;5030689;28;20196;-81
2022/06/17 02:46:28;;;;;;;5.65;5.05;;;16.60;99.90;;;;;;5030451;28;20208;-81
2022/06/17 02:48:59;;;;;;;5.20;4.63;;;16.50;99.90;;;;;;5032952;28;20206;-81
2022/06/17 02:51:30;;;;;;;6.18;5.13;;;16.50;99.90;;;;;;5033557;28;20558;-81
2022/06/17 02:54:00;;;;;;;6.75;5.43;;;16.50;99.90;;;;;;5050404;28;20199;-81
2022/06/17 02:56:30;;;;;;;8.75;5.20;;;16.50;99.90;;;;;;5050073;28;20205;-81
2022/06/17 02:59:05;;;;;;;6.45;5.20;;;16.50;99.90;;;;;;5034784;28;20195;-81
2022/06/17 03:01:37;;;;;;;5.22;4.82;;;16.40;99.90;;;;;;5049951;28;20226;-80
2022/06/17 03:04:29;;;;;;;6.60;5.45;;;16.40;99.90;;;;;;5035283;28;20214;-81
2022/06/17 03:06:57;;;;;;;5.38;4.85;;;16.50;99.90;;;;;;5050636;28;20206;-81
2022/06/17 03:09:30;;;;;;;6.55;5.32;;;16.50;99.90;;;;;;5034675;28;20191;-81
2022/06/17 03:12:04;;;;;;;5.68;4.88;;;16.60;99.90;;;;;;5033199;28;20207;-81
2022/06/17 03:14:41;;;;;;;6.57;5.68;;;16.60;99.90;;;;;;5033918;28;20206;-81
2022/06/17 03:17:12;;;;;;;6.78;5.57;;;16.40;99.90;;;;;;5032959;28;20217;-81
2022/06/17 03:19:41;;;;;;;5.57;5.07;;;16.40;99.90;;;;;;5030233;28;20203;-81
2022/06/17 03:22:13;;;;;;;6.38;5.35;;;16.40;99.90;;;;;;5033163;28;20598;-81
2022/06/17 03:24:49;;;;;;;6.28;5.00;;;16.30;99.90;;;;;;5033212;28;20207;-81
2022/06/17 03:27:21;;;;;;;5.50;4.93;;;16.40;99.90;;;;;;5033281;28;20199;-81
2022/06/17 03:29:50;;;;;;;7.05;5.40;;;16.40;99.90;;;;;;5050414;28;20199;-80
2022/06/17 03:32:20;;;;;;;5.95;5.22;;;16.50;99.90;;;;;;5050328;28;20219;-82
2022/06/17 03:34:51;;;;;;;6.40;5.78;;;16.40;99.90;;;;;;5049717;28;20248;-81
2022/06/17 03:37:24;;;;;;;6.15;5.47;;;16.50;99.90;;;;;;5029240;28;20195;-82
2022/06/17 03:40:00;;;;;;;5.57;4.88;;;16.50;99.90;;;;;;5050048;28;20203;-82
2022/06/17 03:42:32;;;;;;;6.75;5.32;;;16.50;99.90;;;;;;5050828;28;20218;-82
2022/06/17 03:45:04;;;;;;;6.93;5.07;;;16.70;99.90;;;;;;5050805;28;20206;-82
2022/06/17 03:47:41;;;;;;;5.60;4.80;;;16.70;99.90;;;;;;5051126;28;20290;-82
2022/06/17 03:50:19;;;;;;;6.60;5.75;;;16.60;99.90;;;;;;5035221;28;20210;-81
2022/06/17 03:52:51;;;;;;;7.13;5.20;;;16.60;99.90;;;;;;5034386;28;20695;-82
2022/06/17 03:55:23;;;;;;;7.35;5.72;;;16.70;99.90;;;;;;5034215;28;20194;-82
2022/06/17 03:57:53;;;;;;;5.32;4.88;;;16.80;99.90;;;;;;5050832;28;20205;-81
2022/06/17 04:00:30;;;;;;;5.75;5.25;;;16.60;99.90;;;;;;5031857;28;20199;-80
2022/06/17 04:03:00;;;;;;;6.53;5.55;;;16.70;99.90;;;;;;5035417;28;20222;-82
2022/06/17 04:05:29;;;;;;;7.07;6.07;;;16.80;99.90;;;;;;5034349;28;20202;-82
2022/06/17 04:07:57;;;;;;;6.80;5.65;;;16.90;99.90;;;;;;5050543;28;20206;-82
2022/06/17 04:10:30;;;;;;;6.18;5.15;;;17.00;99.90;;;;;;5035276;28;20561;-82
2022/06/17 04:13:01;;;;;;;5.82;4.82;;;17.20;99.90;;;;;;5031939;28;20215;-82
2022/06/17 04:15:46;;;;;;;9.35;5.72;;;17.40;99.90;;;;;;5035785;28;20215;-82
2022/06/17 04:18:14;;;;;;;5.75;5.20;;;17.60;99.90;;;;;;5034715;28;20675;-81
2022/06/17 04:20:48;;;;;;;5.78;5.15;;;17.60;99.90;;;;;;5050684;28;20206;-82
2022/06/17 04:23:19;;;;;;;6.72;5.32;;;17.70;99.90;;;;;;5027148;28;20226;-81
2022/06/17 04:26:02;;;;;;;6.07;5.22;;;17.70;99.90;;;;;;5036076;28;20210;-82
2022/06/17 04:28:34;;;;;;;5.80;5.20;;;17.50;99.90;;;;;;5036994;28;20202;-82
2022/06/17 04:31:06;;;;;;;9.70;5.25;;;17.40;99.90;;;;;;5040458;28;20199;-82
2022/06/17 04:33:41;;;;;;;5.28;4.78;;;17.60;99.90;;;;;;5039858;28;20206;-81
2022/06/17 04:36:15;;;;;;;5.78;4.95;;;17.80;99.90;;;;;;5039448;28;20199;-81
2022/06/17 04:38:50;;;;;;;6.13;5.53;;;17.80;99.90;;;;;;5038634;28;20205;-82
2022/06/17 04:41:39;;;;;;;6.65;5.65;;;17.70;99.90;;;;;;5057144;28;20211;-82
2022/06/17 04:44:14;;;;;;;6.55;5.43;;;17.60;99.90;;;;;;5056256;28;20195;-82
2022/06/17 04:46:46;;;;;;;6.82;6.03;;;17.60;99.90;;;;;;5053557;28;20206;-82
2022/06/17 04:49:26;;;;;;;6.53;5.38;;;17.70;99.90;;;;;;5051762;28;20203;-82
2022/06/17 04:51:58;;;;;;;5.72;5.10;;;17.70;99.90;;;;;;5053424;28;20234;-82
2022/06/17 04:54:28;;;;;;;5.68;5.15;;;17.80;99.90;;;;;;5052311;28;20195;-82
2022/06/17 04:57:16;;;;;;;5.90;4.97;;;17.90;99.90;;;;;;5024606;28;20183;-81
2022/06/17 04:59:47;;;;;;;6.00;5.35;;;17.90;99.90;;;;;;5033009;28;20199;-81
2022/06/17 05:02:19;;;;;;;6.57;5.18;;;17.80;99.90;;;;;;5016121;28;20233;-81
2022/06/17 05:04:55;;;;;;;8.18;5.50;;;17.70;99.90;;;;;;5020659;28;20198;-82
2022/06/17 05:07:23;;;;;;;8.30;5.90;;;17.60;99.90;;;;;;5050026;28;20206;-82
2022/06/17 05:09:55;;;;;;;5.63;4.97;;;17.70;99.90;;;;;;5052837;28;20203;-82
2022/06/17 05:12:32;;;;;;;7.72;5.95;;;17.70;99.90;;;;;;5052559;28;20215;-82
2022/06/17 05:15:04;;;;;;;6.30;5.50;;;17.70;99.90;;;;;;5052630;28;20198;-82
2022/06/17 05:17:32;;;;;;;7.15;5.47;;;17.80;99.90;;;;;;5052003;28;20195;-82
2022/06/17 05:20:00;;;;;;;7.18;5.03;;;17.80;99.90;;;;;;5033405;28;20199;-82
2022/06/17 05:22:32;;;;;;;6.82;4.97;;;17.90;99.90;;;;;;5048555;28;20680;-82
2022/06/17 05:25:06;;;;;;;6.95;4.97;;;18.10;99.90;;;;;;5036524;28;20200;-82
2022/06/17 05:27:35;;;;;;;6.25;4.28;;;18.20;99.90;;;;;;5035866;28;20199;-82
2022/06/17 05:30:04;;;;;;;5.28;4.00;;;18.10;99.90;;;;;;5051676;28;20221;-81
2022/06/17 05:32:38;;;;;;;6.50;4.47;;;18.30;99.90;;;;;;5034907;28;20211;-82
2022/06/17 05:35:06;;;;;;;4.35;3.95;;;18.50;99.90;;;;;;5034629;28;20199;-82
2022/06/17 05:37:34;;;;;;;4.43;3.72;;;18.70;99.90;;;;;;5052366;28;20195;-82
2022/06/17 05:40:08;;;;;;;4.68;3.08;;;18.90;99.90;;;;;;5051623;28;20707;-82
2022/06/17 05:42:38;;;;;;;4.90;2.95;;;19.10;99.60;;;;;;5051897;28;20688;-82
2022/06/17 05:45:11;;;;;;;3.33;2.90;;;19.30;99.20;;;;;;5050937;28;20202;-81
2022/06/17 05:47:48;;;;;;;3.80;3.10;;;19.40;98.00;;;;;;5035048;28;20207;-82
2022/06/17 05:50:42;;;;;;;4.93;3.22;;;19.50;97.30;;;;;;5033617;28;20557;-82
2022/06/17 05:53:26;;;;;;;4.85;3.00;;;19.50;97.50;;;;;;5035061;28;20219;-82
2022/06/17 05:55:56;;;;;;;3.55;3.10;;;19.60;97.40;;;;;;5034570;28;20586;-80
2022/06/17 05:58:25;;;;;;;4.15;2.80;;;19.70;97.00;;;;;;5034192;28;20190;-80
2022/06/17 06:00:55;;;;;;;5.55;2.75;;;19.70;97.00;;;;;;5034753;28;20199;-82
2022/06/17 06:03:25;;;;;;;4.55;3.00;;;19.80;96.90;;;;;;5052562;28;20215;-82
2022/06/17 06:05:55;;;;;;;3.10;2.80;;;19.90;97.20;;;;;;5034572;28;20278;-82
2022/06/17 06:08:25;;;;;;;3.28;2.60;;;20.00;96.80;;;;;;5034307;28;20249;-82
2022/06/17 06:10:53;;;;;;;4.30;2.83;;;19.90;97.50;;;;;;5050930;28;20191;-82
2022/06/17 06:13:26;;;;;;;3.33;3.03;;;20.00;97.20;;;;;;5034818;28;20700;-82
2022/06/17 06:15:55;;;;;;;4.25;3.08;;;20.10;97.80;;;;;;5050648;28;20194;-81
2022/06/17 06:18:29;;;;;;;3.42;2.70;;;20.10;96.90;;;;;;5036339;28;20191;-82
2022/06/17 06:21:00;;;;;;;3.78;2.80;;;20.10;96.70;;;;;;5045583;28;20201;-82
2022/06/17 06:23:28;;;;;;;4.47;2.47;;;20.10;97.30;;;;;;5025464;28;20230;-82
2022/06/17 06:25:55;;;;;;;3.50;2.58;;;20.10;96.20;;;;;;5044059;28;20195;-82
2022/06/17 06:28:26;;;;;;;4.43;2.58;;;20.20;96.60;;;;;;5063163;28;20207;-82
2022/06/17 06:31:20;;;;;;;4.85;2.67;;;20.10;96.50;;;;;;5057858;28;20194;-82
2022/06/17 06:33:48;;;;;;;3.63;2.65;;;20.30;96.40;;;;;;5034690;28;20195;-82
2022/06/17 06:36:17;;;;;;;3.90;2.67;;;20.30;96.40;;;;;;5034614;28;20204;-82
2022/06/17 06:38:44;;;;;;;3.72;2.60;;;20.40;96.40;;;;;;5034579;28;20202;-82
2022/06/17 06:41:12;;;;;;;2.70;2.50;;;20.40;96.30;;;;;;5034324;28;20202;-82
2022/06/17 06:43:42;;;;;;;4.22;2.60;;;20.50;95.90;;;;;;5034233;28;20222;-82
2022/06/17 06:46:27;;;;;;;5.90;2.78;;;20.50;96.20;;;;;;5042647;28;20186;-81
2022/06/17 06:48:55;;;;;;;4.60;2.50;;;20.50;96.30;;;;;;5033685;28;20290;-82
2022/06/17 06:51:22;;;;;;;4.85;2.90;;;20.50;96.60;;;;;;5050993;28;20202;-82
2022/06/17 06:53:53;;;;;;;3.50;2.60;;;20.50;96.50;;;;;;5068594;28;20190;-83
2022/06/17 06:56:21;;;;;;;5.78;2.50;;;20.50;96.50;;;;;;5053895;28;20660;-82
2022/06/17 06:58:51;;;;;;;6.55;3.17;;;20.60;96.00;;;;;;5053995;28;20675;-82
2022/06/17 07:01:18;;;;;;;3.15;2.67;;;20.60;95.40;;;;;;5054145;28;20194;-82
2022/06/17 07:03:46;;;;;;;5.82;3.00;;;20.80;95.30;;;;;;5041254;28;20280;-81
2022/06/17 07:06:16;;;;;;;3.90;2.45;;;20.90;96.50;;;;;;5050214;28;20202;-82
2022/06/17 07:08:43;;;;;;;5.38;2.55;;;21.00;95.70;;;;;;5050099;28;20207;-82
2022/06/17 07:11:13;;;;;;;5.57;2.50;;;21.20;94.90;;;;;;5054104;28;20213;-82
2022/06/17 07:13:40;;;;;;;2.58;2.38;;;21.30;94.80;;;;;;5053215;28;20209;-82
2022/06/17 07:16:11;;;;;;;3.15;2.40;;;21.30;94.50;;;;;;5053648;28;20198;-82
2022/06/17 07:18:40;;;;;;;3.08;2.47;;;21.30;94.30;;;;;;5070036;28;20202;-82
2022/06/17 07:21:09;;;;;;;5.03;2.53;;;21.40;94.60;;;;;;5061241;28;20198;-82
2022/06/17 07:23:39;;;;;;;3.08;2.45;;;21.30;93.00;;;;;;5025244;28;20219;-82
2022/06/17 07:26:09;;;;;;;2.40;2.20;;;21.30;93.20;;;;;;5014256;28;20196;-83
2022/06/17 07:28:37;;;;;;;10.10;2.97;;;21.30;93.10;;;;;;5013645;28;20203;-82
2022/06/17 07:31:04;;;;;;;4.63;2.13;;;21.30;92.70;;;;;;5032804;28;20593;-82
2022/06/17 07:33:34;;;;;;;2.80;2.40;;;21.20;92.60;;;;;;5033063;28;20206;-82
2022/06/17 07:36:05;;;;;;;3.78;2.42;;;21.20;92.10;;;;;;5033062;28;20194;-82
2022/06/17 07:41:21;;;;;;;2.78;2.25;;;21.40;91.90;;;;;;5034039;28;20656;-82
2022/06/17 07:43:49;;;;;;;2.85;2.15;;;21.40;91.40;;;;;;5033771;28;20735;-82
2022/06/17 07:46:16;;;;;;;5.18;2.47;;;21.50;91.30;;;;;;5033846;28;20218;-82
2022/06/17 07:48:46;;;;;;;3.08;2.45;;;21.50;91.30;;;;;;5030783;28;20195;-81
2022/06/17 07:51:13;;;;;;;3.92;2.30;;;21.60;91.60;;;;;;5032083;28;20191;-81
2022/06/17 07:53:42;;;;;;;2.30;2.10;;;21.70;90.70;;;;;;5033923;28;20198;-81
2022/06/17 07:56:15;;;;;;;3.63;2.15;;;21.90;91.10;;;;;;5037249;28;20239;-82
2022/06/17 07:58:43;;;;;;;3.45;2.08;;;21.90;90.40;;;;;;5036544;28;20183;-82
2022/06/17 08:01:12;;;;;;;2.33;2.13;;;21.70;88.50;;;;;;5034667;28;20207;-82
2022/06/17 08:03:44;;;;;;;4.07;2.30;;;21.80;89.40;;;;;;5034631;28;20584;-82
2022/06/17 08:06:14;;;;;;;3.22;2.30;;;21.90;87.70;;;;;;5034358;28;20200;-81
2022/06/17 08:08:42;;;;;;;3.92;2.17;;;21.80;87.90;;;;;;5035629;28;20202;-82
2022/06/17 08:11:10;;;;;;;4.82;2.70;;;22.00;88.00;;;;;;5037670;28;20202;-82
2022/06/17 08:13:38;;;;;;;2.60;2.22;;;22.20;87.40;;;;;;5054108;28;20206;-82
2022/06/17 08:16:09;;;;;;;3.58;2.33;;;22.10;86.30;;;;;;5038115;28;20210;-82
2022/06/17 08:18:38;;;;;;;3.72;2.35;;;22.30;87.50;;;;;;5053863;28;20566;-82
2022/06/17 08:21:08;;;;;;;3.60;2.47;;;22.40;88.80;;;;;;5031793;28;20210;-81
2022/06/17 08:23:36;;;;;;;3.60;2.42;;;22.40;86.30;;;;;;5037043;28;20187;-82
2022/06/17 08:26:07;;;;;;;6.47;2.72;;;22.60;88.20;;;;;;5054295;28;20195;-82
2022/06/17 08:28:35;;;;;;;3.20;2.45;;;22.70;85.50;;;;;;5037427;28;20653;-82
2022/06/17 08:31:02;;;;;;;2.50;2.30;;;22.70;84.20;;;;;;5038241;28;20201;-81
2022/06/17 08:33:30;;;;;;;4.43;2.80;;;22.50;85.00;;;;;;5055932;22;20219;-80
2022/06/17 08:36:02;;;;;;;3.88;2.67;;;22.40;84.30;;;;;;5033005;28;20188;-81
2022/06/17 08:38:33;;;;;;;4.95;3.38;;;22.50;83.90;;;;;;5009292;28;20208;-81
2022/06/17 08:41:09;;;;;;;2.58;2.38;;;22.70;82.10;;;;;;5026730;28;20725;-81
2022/06/17 08:44:03;;;;;;;4.00;2.58;;;22.80;84.10;;;;;;5004178;28;20235;-81
2022/06/17 08:46:43;;;;;;;2.92;2.25;;;22.70;82.20;;;;;;4990289;28;20207;-80
2022/06/17 08:49:24;;;;;;;6.63;2.58;;;22.80;81.50;;;;;;5006474;28;20206;-81
2022/06/17 08:52:08;;;;;;;4.18;2.97;;;22.80;81.80;;;;;;4990314;28;20196;-81
2022/06/17 08:54:47;;;;;;;3.45;2.42;;;22.80;81.60;;;;;;5011992;28;20218;-81
2022/06/17 08:57:19;;;;;;;4.03;2.88;;;22.80;80.40;;;;;;5011132;28;20558;-81
2022/06/17 09:00:07;;;;;;;3.28;2.30;;;22.80;81.70;;;;;;4989226;28;20207;-81
2022/06/17 09:02:58;;;;;;;4.20;2.40;;;23.10;83.10;;;;;;5006361;28;20180;-80
2022/06/17 09:05:45;;;;;;;3.50;2.35;;;23.20;81.50;;;;;;4989383;28;20221;-80
2022/06/17 09:08:34;;;;;;;4.15;2.45;;;23.10;81.90;;;;;;5005985;28;20189;-80
2022/06/17 09:11:15;;;;;;;4.53;2.60;;;23.20;81.00;;;;;;5003287;28;20284;-80
2022/06/17 09:13:53;;;;;;;5.40;2.67;;;23.10;81.90;;;;;;4986402;28;20217;-81
2022/06/17 09:16:29;;;;;;;6.53;2.72;;;23.20;80.20;;;;;;4986801;28;20208;-80
2022/06/17 09:19:00;;;;;;;3.40;2.78;;;23.20;80.70;;;;;;4985636;28;20200;-80
2022/06/17 09:21:32;;;;;;;3.17;2.50;;;23.10;79.60;;;;;;4995459;28;20215;-81
2022/06/17 09:24:06;;;;;;;3.03;2.22;;;23.10;79.00;;;;;;5006025;28;20216;-81
2022/06/17 09:26:41;;;;;;;3.47;2.42;;;23.20;81.40;;;;;;4989146;28;20203;-80
2022/06/17 09:29:15;;;;;;;3.30;2.55;;;23.30;81.80;;;;;;5005088;28;20203;-80
2022/06/17 09:31:47;;;;;;;2.60;2.40;;;23.20;78.60;;;;;;5004489;28;20200;-80
2022/06/17 09:34:21;;;;;;;3.65;2.50;;;23.00;79.20;;;;;;5005875;28;20224;-80
2022/06/17 09:36:52;;;;;;;4.43;2.50;;;22.90;77.20;;;;;;4970507;28;20201;-81
2022/06/17 09:39:28;;;;;;;6.18;2.80;;;23.00;78.70;;;;;;4985023;28;20206;-81
2022/06/17 09:42:04;;;;;;;5.35;2.58;;;23.20;78.00;;;;;;5010171;28;20204;-80
2022/06/17 09:44:37;;;;;;;3.25;1.98;;;23.40;78.20;;;;;;5016799;28;20210;-80
2022/06/17 09:47:09;;;;;;;3.30;2.47;;;23.20;76.30;;;;;;5009636;28;20195;-80
2022/06/17 09:49:42;;;;;;;3.30;2.30;;;23.20;77.80;;;;;;5016005;28;20198;-80
2022/06/17 09:52:15;;;;;;;4.60;2.28;;;23.30;78.20;;;;;;5017315;28;20183;-80
2022/06/17 09:54:47;;;;;;;4.50;2.55;;;23.40;78.00;;;;;;4985825;28;20220;-81
2022/06/17 09:57:21;;;;;;;5.13;2.42;;;23.40;77.00;;;;;;4984983;28;20488;-80
2022/06/17 09:59:52;;;;;;;2.17;2.00;;;23.60;78.30;;;;;;4968771;28;20211;-80
2022/06/17 10:02:23;;;;;;;2.88;1.95;;;23.40;73.80;;;;;;4963305;28;20208;-78
2022/06/17 10:04:52;;;;;;;3.83;2.30;;;23.40;77.10;;;;;;4974687;28;20212;-80
2022/06/17 10:07:27;;;;;;;3.40;2.15;;;23.40;71.10;;;;;;4990450;28;20201;-80
2022/06/17 10:10:10;;;;;;;4.30;2.10;;;23.60;70.50;;;;;;4985459;28;20208;-80
2022/06/17 10:12:52;;;;;;;4.50;2.20;;;23.70;69.10;;;;;;4995866;28;20215;-80
2022/06/17 10:15:34;;;;;;;4.32;2.13;;;23.50;69.80;;;;;;5004106;28;20216;-80
2022/06/17 10:18:33;;;;;;;3.55;2.10;;;23.60;71.80;;;;;;4998695;28;20184;-80
2022/06/17 10:21:23;;;;;;;2.88;2.20;;;23.60;69.30;;;;;;4987363;28;20204;-80
2022/06/17 10:24:00;;;;;;;2.30;1.95;;;23.70;69.50;;;;;;4987023;28;20227;-80
2022/06/17 10:26:40;;;;;;;2.70;1.73;;;23.80;69.40;;;;;;5005945;28;20196;-80
2022/06/17 10:29:31;;;;;;;2.03;1.77;;;24.00;68.10;;;;;;4975167;28;20214;-80
2022/06/17 10:32:00;;;;;;;1.92;1.60;;;24.10;64.80;;;;;;5003987;28;20204;-80
2022/06/17 10:34:33;;;;;;;1.80;1.58;;;24.30;65.10;;;;;;5003531;28;20232;-80
2022/06/17 10:37:04;;;;;;;3.70;2.00;;;24.30;67.60;;;;;;5000501;28;20196;-80
2022/06/17 10:39:34;;;;;;;2.17;1.98;;;24.40;66.50;;;;;;4985851;28;20200;-81
2022/06/17 10:42:03;;;;;;;2.90;1.90;;;24.50;69.50;;;;;;4969024;28;20220;-81
2022/06/17 10:44:32;;;;;;;1.88;1.77;;;24.70;66.20;;;;;;4974559;28;20227;-80
2022/06/17 10:47:12;;;;;;;2.53;2.00;;;24.80;69.30;;;;;;4984828;28;20192;-80
2022/06/17 10:49:45;;;;;;;3.53;2.22;;;24.90;68.10;;;;;;5002903;28;20211;-81
2022/06/17 10:52:19;;;;;;;4.68;2.33;;;24.80;67.70;;;;;;4987315;28;20205;-80
2022/06/17 10:54:49;;;;;;;2.05;1.85;;;24.60;69.10;;;;;;4984299;28;20223;-81
2022/06/17 10:57:25;;;;;;;2.65;1.85;;;24.90;71.00;;;;;;4979901;28;20204;-80
2022/06/17 10:59:53;;;;;;;2.13;1.98;;;25.20;63.50;;;;;;4976221;28;20226;-81
2022/06/17 11:02:29;;;;;;;1.95;1.70;;;25.40;62.40;;;;;;4967140;28;20208;-81
2022/06/17 11:04:58;;;;;;;1.52;1.42;;;25.40;56.40;;;;;;4985706;28;20208;-80
2022/06/17 11:07:30;;;;;;;2.47;1.52;;;25.40;56.80;;;;;;4973440;28;20200;-81
2022/06/17 11:10:01;;;;;;;1.52;1.42;;;25.30;53.60;;;;;;4997750;28;20203;-81
2022/06/17 11:12:34;;;;;;;1.80;1.55;;;25.40;54.00;;;;;;5003264;28;20204;-81
2022/06/17 11:15:18;;;;;;;2.05;1.83;;;25.80;54.60;;;;;;5003903;28;20227;-81
2022/06/17 11:17:49;;;;;;;3.13;1.88;;;26.10;57.20;;;;;;4995681;28;20211;-80
2022/06/17 11:20:24;;;;;;;1.92;1.70;;;26.00;56.10;;;;;;4993394;28;20213;-81
2022/06/17 11:22:54;;;;;;;3.70;1.85;;;26.00;57.30;;;;;;4995460;28;20204;-81
2022/06/17 11:25:25;;;;;;;3.08;2.15;;;26.00;55.80;;;;;;5003648;28;20224;-81
2022/06/17 11:27:56;;;;;;;3.30;1.92;;;26.20;56.70;;;;;;4986231;28;20207;-81
2022/06/17 11:30:29;;;;;;;4.20;1.80;;;26.00;53.90;;;;;;4986409;28;20204;-81
2022/06/17 11:32:59;;;;;;;2.33;2.05;;;26.10;52.90;;;;;;5002295;28;20207;-81
2022/06/17 11:35:38;;;;;;;2.13;1.95;;;26.30;54.30;;;;;;5004462;28;20224;-81
2022/06/17 11:38:12;;;;;;;1.90;1.63;;;26.40;52.70;;;;;;5004499;28;20204;-81
2022/06/17 11:40:50;;;;;;;3.47;1.95;;;26.60;53.70;;;;;;4987577;28;20571;-81
2022/06/17 11:43:31;;;;;;;2.25;1.40;;;26.70;53.00;;;;;;5004536;28;20200;-81
2022/06/17 11:46:07;;;;;;;3.13;1.70;;;26.50;52.30;;;;;;5002982;28;20212;-81
2022/06/17 11:48:40;;;;;;;1.73;1.55;;;26.40;52.10;;;;;;4986093;28;20200;-81
2022/06/17 11:51:11;;;;;;;5.65;2.58;;;26.60;52.50;;;;;;4985408;28;20203;-81
2022/06/17 11:53:46;;;;;;;1.80;1.70;;;26.70;53.10;;;;;;4987517;28;20216;-81
2022/06/17 11:56:28;;;;;;;1.85;1.63;;;26.80;49.10;;;;;;4986581;28;20199;-81
2022/06/17 11:58:59;;;;;;;2.05;1.45;;;26.70;47.80;;;;;;4986541;28;20200;-80
2022/06/17 12:01:28;;;;;;;1.63;1.17;;;26.70;48.40;;;;;;5002723;28;20196;-81
2022/06/17 12:03:56;;;;;;;1.60;1.50;;;26.50;47.70;;;;;;4991871;28;20224;-81
2022/06/17 12:06:26;;;;;;;1.80;1.70;;;26.70;48.90;;;;;;4982562;28;20224;-81
2022/06/17 12:09:04;;;;;;;1.85;1.58;;;26.70;49.20;;;;;;4982591;28;20204;-80
2022/06/17 12:11:41;;;;;;;2.22;1.50;;;26.50;48.70;;;;;;4979035;28;20201;-81
2022/06/17 12:14:34;;;;;;;1.80;1.58;;;26.60;49.60;;;;;;4966825;28;20714;-81
2022/06/17 12:17:03;;;;;;;3.80;1.80;;;26.80;49.30;;;;;;4967652;28;20204;-81
2022/06/17 12:19:39;;;;;;;1.83;1.73;;;26.70;51.10;;;;;;4983684;28;20193;-81
2022/06/17 12:22:20;;;;;;;3.00;1.75;;;26.80;52.20;;;;;;4965062;28;20208;-81
2022/06/17 12:24:53;;;;;;;2.67;1.80;;;26.90;50.40;;;;;;4975510;28;20224;-81
2022/06/17 12:27:26;;;;;;;3.25;2.00;;;27.00;50.80;;;;;;5001820;28;20223;-81
2022/06/17 12:29:59;;;;;;;2.78;1.50;;;27.20;50.80;;;;;;5001421;28;20287;-81
2022/06/17 12:32:36;;;;;;;2.90;1.60;;;27.30;50.00;;;;;;4987561;28;20200;-81
2022/06/17 12:35:10;;;;;;;2.67;1.50;;;27.40;48.30;;;;;;4984505;28;20228;-81
2022/06/17 12:37:49;;;;;;;2.05;1.80;;;27.40;47.30;;;;;;5001556;28;20169;-81
2022/06/17 12:40:22;;;;;;;2.22;1.85;;;27.30;48.30;;;;;;4967933;28;20197;-81
2022/06/17 12:42:54;;;;;;;2.10;1.50;;;27.50;49.20;;;;;;4986590;28;20188;-81
2022/06/17 12:45:29;;;;;;;3.90;1.73;;;27.40;48.30;;;;;;4989763;28;20220;-81
2022/06/17 12:48:16;;;;;;;2.83;1.70;;;27.10;49.40;;;;;;4989155;28;20191;-81
2022/06/17 12:53:47;;;;;;;1.98;1.63;;;27.30;48.80;;;;;;4989370;28;20219;-81
2022/06/17 12:56:33;;;;;;;2.55;1.77;;;27.50;48.80;;;;;;5005937;28;20196;-81
2022/06/17 12:59:16;;;;;;;2.97;1.70;;;27.70;48.70;;;;;;4989222;28;20557;-82
2022/06/17 13:01:58;;;;;;;2.20;1.73;;;28.10;47.10;;;;;;4983161;28;20556;-81
2022/06/17 13:04:45;;;;;;;4.07;1.58;;;28.20;46.30;;;;;;4988824;28;20220;-81
2022/06/17 13:07:19;;;;;;;2.88;1.73;;;28.30;45.90;;;;;;4989300;28;20243;-81
2022/06/17 13:09:57;;;;;;;2.20;1.48;;;28.30;46.00;;;;;;5007458;28;20184;-82
2022/06/17 13:12:28;;;;;;;1.85;1.25;;;28.40;43.90;;;;;;4982275;28;20207;-81
2022/06/17 13:15:03;;;;;;;2.35;1.15;;;28.60;40.80;;;;;;4987192;28;20223;-82
2022/06/17 13:17:35;;;;;;;1.25;1.15;;;28.60;40.70;;;;;;4969879;28;20210;-81
2022/06/17 13:20:09;;;;;;;4.95;1.27;;;28.70;38.40;;;;;;5000537;28;20201;-81
2022/06/17 13:22:44;;;;;;;2.72;1.23;;;28.80;40.40;;;;;;4988147;28;20429;-81
2022/06/17 13:25:20;;;;;;;1.70;1.27;;;29.00;39.70;;;;;;4984932;28;20231;-81
2022/06/17 13:27:54;;;;;;;1.00;1.00;;;28.70;38.90;;;;;;5005144;28;20226;-81